Time;durP1;ratioP1;P1;durP2;ratioP2;P2;SDS_P1;SDS_P2;PMS_P1;PMS_P2;Temp;Humidity;BMP_temperature;BMP_pressure;BME280_temperature;BME280_humidity;BME280_pressure;Samples;Min_cycle;Max_cycle;Signal;HPM_P1;HPM_P2
2023/10/20 00:01:58;;;;;;;79.28;50.22;;;;;;;;;;4951884;28;20043;-79
2023/10/20 00:04:24;;;;;;;78.63;50.05;;;;;;;;;;4967049;28;20039;-81
2023/10/20 00:06:51;;;;;;;82.22;50.67;;;;;;;;;;4954873;28;20026;-82
2023/10/20 00:09:18;;;;;;;79.70;50.35;;;;;;;;;;4950028;29;20107;-80
2023/10/20 00:11:45;;;;;;;79.03;52.45;;;;;;;;;;4938674;28;20075;-81
2023/10/20 00:14:11;;;;;;;91.18;51.25;;;;;;;;;;4972055;28;20035;-82
2023/10/20 00:16:37;;;;;;;87.00;52.15;;;;;;;;;;4937862;28;20386;-81
2023/10/20 00:19:03;;;;;;;92.80;54.28;;;;;;;;;;4963070;29;20031;-80
2023/10/20 00:21:30;;;;;;;84.45;53.70;;;;;;;;;;4942122;28;20056;-81
2023/10/20 00:23:56;;;;;;;93.82;56.03;;;;;;;;;;4950785;28;20043;-82
2023/10/20 00:26:22;;;;;;;83.78;55.88;;;;;;;;;;4957140;28;20023;-81
2023/10/20 00:28:49;;;;;;;96.50;56.63;;;;;;;;;;4959376;28;20692;-82
2023/10/20 00:31:16;;;;;;;84.97;55.95;;;;;;;;;;4958194;28;20571;-81
2023/10/20 00:33:45;;;;;;;95.18;57.22;;;;;;;;;;4971824;28;20034;-80
2023/10/20 00:36:11;;;;;;;95.78;57.25;;;;;;;;;;4959447;28;20034;-81
2023/10/20 00:38:38;;;;;;;95.65;57.75;;;;;;;;;;4955935;28;20043;-83
2023/10/20 00:41:05;;;;;;;93.18;58.97;;;;;;;;;;4973849;28;20034;-80
2023/10/20 00:43:35;;;;;;;99.10;58.75;;;;;;;;;;4937060;29;20031;-82
2023/10/20 00:46:02;;;;;;;95.43;59.23;;;;;;;;;;4954663;28;20542;-80
2023/10/20 00:48:29;;;;;;;88.85;56.38;;;;;;;;;;4969511;28;20066;-79
2023/10/20 00:50:55;;;;;;;96.20;59.40;;;;;;;;;;4947380;28;20098;-81
2023/10/20 00:53:23;;;;;;;92.20;57.63;;;;;;;;;;4971752;28;20126;-81
2023/10/20 00:55:50;;;;;;;96.60;57.53;;;;;;;;;;4939892;28;20512;-81
2023/10/20 00:58:16;;;;;;;102.65;59.88;;;;;;;;;;4959250;28;20038;-81
2023/10/20 01:00:42;;;;;;;91.88;57.70;;;;;;;;;;4945680;28;20045;-81
2023/10/20 01:03:10;;;;;;;102.78;57.38;;;;;;;;;;4968385;28;20056;-82
2023/10/20 01:05:37;;;;;;;100.05;59.08;;;;;;;;;;4984522;28;20045;-83
2023/10/20 01:08:03;;;;;;;99.63;58.45;;;;;;;;;;4949927;28;20053;-82
2023/10/20 01:10:30;;;;;;;97.20;57.50;;;;;;;;;;4943765;28;20036;-82
2023/10/20 01:12:56;;;;;;;102.18;57.60;;;;;;;;;;4974002;28;20345;-82
2023/10/20 01:15:22;;;;;;;108.78;59.47;;;;;;;;;;4939788;28;20027;-82
2023/10/20 01:17:48;;;;;;;102.65;57.17;;;;;;;;;;4967035;28;20042;-81
2023/10/20 01:20:15;;;;;;;104.40;58.83;;;;;;;;;;4939501;28;20034;-82
2023/10/20 01:22:42;;;;;;;107.60;58.08;;;;;;;;;;4978028;28;20145;-81
2023/10/20 01:25:08;;;;;;;101.60;56.50;;;;;;;;;;4944874;28;20059;-80
2023/10/20 01:27:35;;;;;;;110.18;58.13;;;;;;;;;;4954612;28;20035;-80
2023/10/20 01:30:01;;;;;;;107.65;57.03;;;;;;;;;;4975728;28;20109;-82
2023/10/20 01:32:27;;;;;;;107.25;56.85;;;;;;;;;;4976645;28;20034;-81
2023/10/20 01:34:54;;;;;;;109.32;57.83;;;;;;;;;;4956201;28;20066;-81
2023/10/20 01:37:20;;;;;;;103.65;54.58;;;;;;;;;;4972345;28;20122;-81
2023/10/20 01:39:47;;;;;;;106.70;54.88;;;;;;;;;;4955590;28;20109;-82
2023/10/20 01:42:13;;;;;;;101.22;54.97;;;;;;;;;;4952330;28;20039;-80
2023/10/20 01:44:39;;;;;;;110.65;55.00;;;;;;;;;;4958334;28;20116;-81
2023/10/20 01:47:24;;;;;;;103.95;55.38;;;;;;;;;;4978824;28;20065;-82
2023/10/20 01:49:50;;;;;;;105.10;53.90;;;;;;;;;;4982022;28;20154;-81
2023/10/20 01:52:16;;;;;;;110.00;55.33;;;;;;;;;;4972487;28;20027;-82
2023/10/20 01:54:43;;;;;;;103.95;55.08;;;;;;;;;;4967453;28;20034;-81
2023/10/20 01:57:10;;;;;;;101.57;53.85;;;;;;;;;;4981463;28;20070;-83
2023/10/20 01:59:36;;;;;;;107.80;56.15;;;;;;;;;;4945929;28;20117;-82
2023/10/20 02:02:04;;;;;;;104.95;54.40;;;;;;;;;;4959127;28;20039;-81
2023/10/20 02:04:30;;;;;;;103.45;55.45;;;;;;;;;;4958989;28;20061;-81
2023/10/20 02:06:57;;;;;;;108.93;53.22;;;;;;;;;;4973668;28;20030;-81
2023/10/20 02:09:25;;;;;;;106.72;54.20;;;;;;;;;;4973785;28;20030;-81
2023/10/20 02:11:58;;;;;;;108.75;55.25;;;;;;;;;;4956142;28;20027;-81
2023/10/20 02:14:24;;;;;;;104.18;52.25;;;;;;;;;;4962345;28;20035;-80
2023/10/20 02:16:54;;;;;;;110.82;54.03;;;;;;;;;;4963268;28;20035;-83
2023/10/20 02:19:20;;;;;;;108.80;54.72;;;;;;;;;;4956016;28;20035;-82
2023/10/20 02:21:47;;;;;;;113.35;53.53;;;;;;;;;;4958066;28;20041;-82
2023/10/20 02:24:13;;;;;;;109.70;53.17;;;;;;;;;;4952618;28;20146;-80
2023/10/20 02:26:40;;;;;;;106.15;53.33;;;;;;;;;;4933595;29;20122;-81
2023/10/20 02:29:06;;;;;;;112.53;53.35;;;;;;;;;;4934485;29;20098;-81
2023/10/20 02:31:32;;;;;;;111.28;54.85;;;;;;;;;;4951398;29;20089;-79
2023/10/20 02:33:59;;;;;;;115.75;53.75;;;;;;;;;;4938440;29;20053;-80
2023/10/20 02:36:25;;;;;;;122.47;54.28;;;;;;;;;;4941674;29;20031;-80
2023/10/20 02:38:55;;;;;;;116.70;53.63;;;;;;;;;;4946610;29;20067;-80
2023/10/20 02:41:21;;;;;;;119.05;54.25;;;;;;;;;;4946978;29;20031;-82
2023/10/20 02:43:48;;;;;;;118.63;54.58;;;;;;;;;;4964124;29;20011;-81
2023/10/20 02:49:20;;;;;;;120.60;54.47;;;;;;;;;;4953669;29;20031;-80
2023/10/20 02:51:46;;;;;;;119.22;54.50;;;;;;;;;;4922917;29;20024;-80
2023/10/20 02:54:12;;;;;;;121.65;54.85;;;;;;;;;;4942064;29;20563;-80
2023/10/20 02:56:39;;;;;;;123.55;55.10;;;;;;;;;;4950499;28;20082;-80
2023/10/20 02:59:05;;;;;;;116.47;53.38;;;;;;;;;;4935602;29;20031;-82
2023/10/20 03:01:31;;;;;;;122.35;54.20;;;;;;;;;;4952450;29;20035;-79
2023/10/20 03:03:57;;;;;;;117.13;51.22;;;;;;;;;;4953752;29;20035;-80
2023/10/20 03:06:24;;;;;;;122.13;53.75;;;;;;;;;;4935789;29;20477;-79
2023/10/20 03:08:50;;;;;;;124.13;52.90;;;;;;;;;;4914002;29;20850;-79
2023/10/20 03:11:16;;;;;;;118.57;54.33;;;;;;;;;;4935445;29;20031;-82
2023/10/20 03:13:42;;;;;;;116.22;50.83;;;;;;;;;;4953476;28;20114;-80
2023/10/20 03:16:10;;;;;;;117.97;52.42;;;;;;;;;;4938412;29;20031;-82
2023/10/20 03:18:36;;;;;;;119.63;50.33;;;;;;;;;;4963811;29;20024;-80
2023/10/20 03:21:03;;;;;;;117.13;51.30;;;;;;;;;;4929798;29;20047;-81
2023/10/20 03:23:30;;;;;;;112.32;49.65;;;;;;;;;;4949123;28;20042;-80
2023/10/20 03:25:56;;;;;;;115.28;52.30;;;;;;;;;;4972153;28;20400;-81
2023/10/20 03:28:23;;;;;;;108.13;50.60;;;;;;;;;;4955374;28;20031;-80
2023/10/20 03:30:50;;;;;;;108.15;48.60;;;;;;;;;;4964193;28;20027;-81
2023/10/20 03:33:16;;;;;;;112.60;50.08;;;;;;;;;;4967654;28;20130;-81
2023/10/20 03:35:43;;;;;;;107.43;49.42;;;;;;;;;;4977205;28;20444;-82
2023/10/20 03:38:09;;;;;;;114.72;49.60;;;;;;;;;;4944341;28;20043;-80
2023/10/20 03:40:40;;;;;;;115.85;48.53;;;;;;;;;;4941938;28;20050;-79
2023/10/20 03:43:08;;;;;;;;;;;;;;;;;;4954256;28;20504;-79
2023/10/20 03:45:51;;;;;;;107.30;47.50;;;;;;;;;;4973376;28;19910;-81
2023/10/20 03:48:19;;;;;;;100.65;46.35;;;;;;;;;;4953394;28;20035;-80
2023/10/20 03:50:48;;;;;;;104.07;47.15;;;;;;;;;;4970750;28;20105;-80
2023/10/20 03:53:27;;;;;;;110.25;48.35;;;;;;;;;;4931478;28;20031;-79
2023/10/20 03:56:07;;;;;;;103.30;46.78;;;;;;;;;;4964605;28;20058;-80
2023/10/20 03:58:53;;;;;;;106.95;46.58;;;;;;;;;;4965253;28;20042;-81
2023/10/20 04:01:21;;;;;;;98.75;46.85;;;;;;;;;;4966925;28;20110;-82
2023/10/20 04:03:50;;;;;;;105.53;49.25;;;;;;;;;;4972202;28;20440;-80
2023/10/20 04:06:18;;;;;;;106.13;47.58;;;;;;;;;;4972760;28;20027;-80
2023/10/20 04:08:45;;;;;;;103.03;46.70;;;;;;;;;;4954908;28;20066;-80
2023/10/20 04:11:13;;;;;;;104.13;46.63;;;;;;;;;;4955632;28;20046;-79
2023/10/20 04:13:41;;;;;;;99.03;45.90;;;;;;;;;;4936580;28;20077;-79
2023/10/20 04:16:12;;;;;;;107.40;48.60;;;;;;;;;;4976928;28;20050;-79
2023/10/20 04:18:39;;;;;;;107.20;47.97;;;;;;;;;;4970215;28;20054;-79
2023/10/20 04:21:06;;;;;;;104.78;46.42;;;;;;;;;;4968100;28;20121;-78
2023/10/20 04:23:32;;;;;;;105.10;46.70;;;;;;;;;;4965889;28;20038;-79
2023/10/20 04:25:58;;;;;;;100.88;47.00;;;;;;;;;;4976708;28;20023;-80
2023/10/20 04:28:44;;;;;;;102.30;48.17;;;;;;;;;;4959378;28;20046;-80
2023/10/20 05:10:35;;;;;;;113.45;50.80;;;;;;;;;;4984376;28;20038;-80
2023/10/20 05:13:01;;;;;;;109.40;51.25;;;;;;;;;;4981166;28;20062;-79
2023/10/20 05:15:31;;;;;;;115.25;52.10;;;;;;;;;;4983904;28;20058;-81
2023/10/20 05:17:57;;;;;;;106.30;48.50;;;;;;;;;;4984062;28;20070;-81
2023/10/20 05:20:24;;;;;;;102.38;48.33;;;;;;;;;;4954673;28;20070;-80
2023/10/20 05:22:50;;;;;;;111.43;48.72;;;;;;;;;;4957587;28;20114;-80
2023/10/20 05:25:17;;;;;;;102.20;49.30;;;;;;;;;;4944153;29;20027;-79
2023/10/20 05:27:43;;;;;;;102.97;47.22;;;;;;;;;;4953874;29;20103;-81
2023/10/20 05:30:10;;;;;;;99.97;46.35;;;;;;;;;;4961521;28;20126;-81
2023/10/20 05:32:37;;;;;;;104.40;45.42;;;;;;;;;;4944178;29;20037;-81
2023/10/20 05:35:04;;;;;;;107.40;46.78;;;;;;;;;;4933322;29;20036;-80
2023/10/20 05:37:34;;;;;;;105.97;45.75;;;;;;;;;;4937405;29;20127;-80
2023/10/20 05:40:00;;;;;;;101.25;46.10;;;;;;;;;;4934604;29;20122;-80
2023/10/20 05:42:26;;;;;;;98.22;45.42;;;;;;;;;;4914314;29;20067;-81
2023/10/20 05:45:02;;;;;;;101.53;45.00;;;;;;;;;;4930016;29;20053;-80
2023/10/20 05:47:30;;;;;;;96.55;42.60;;;;;;;;;;4944903;29;20050;-80
2023/10/20 05:49:57;;;;;;;96.40;43.22;;;;;;;;;;4929103;29;20055;-80
2023/10/20 05:52:23;;;;;;;90.75;40.45;;;;;;;;;;4953774;28;20590;-81
2023/10/20 05:54:50;;;;;;;95.35;43.38;;;;;;;;;;4943002;29;20076;-78
2023/10/20 05:57:16;;;;;;;91.30;40.65;;;;;;;;;;4960223;29;20031;-80
2023/10/20 05:59:43;;;;;;;90.07;40.13;;;;;;;;;;4934622;29;20158;-81
2023/10/20 06:02:09;;;;;;;87.85;39.35;;;;;;;;;;4928155;29;20084;-81
2023/10/20 06:04:35;;;;;;;89.68;39.63;;;;;;;;;;4931641;29;20091;-87
2023/10/20 06:07:01;;;;;;;90.32;40.85;;;;;;;;;;4949369;29;20114;-81
2023/10/20 06:09:28;;;;;;;81.75;38.53;;;;;;;;;;4919102;29;20737;-80
2023/10/20 06:12:13;;;;;;;86.72;38.85;;;;;;;;;;4933441;29;20039;-82
2023/10/20 06:17:48;;;;;;;77.93;36.20;;;;;;;;;;4946861;29;20480;-89
2023/10/20 06:20:14;;;;;;;66.40;32.88;;;;;;;;;;4946868;29;20260;-82
2023/10/20 06:22:44;;;;;;;75.13;34.03;;;;;;;;;;4920448;29;20035;-88
2023/10/20 06:25:12;;;;;;;70.25;33.95;;;;;;;;;;4948428;28;20051;-82
2023/10/20 06:27:40;;;;;;;73.53;34.47;;;;;;;;;;4976009;28;20062;-80
2023/10/20 06:30:07;;;;;;;78.72;33.83;;;;;;;;;;4954802;28;20405;-82
2023/10/20 06:32:43;;;;;;;64.05;31.70;;;;;;;;;;4986834;28;20074;-81
2023/10/20 06:35:12;;;;;;;59.40;28.83;;;;;;;;;;4952500;28;20090;-82
2023/10/20 06:37:57;;;;;;;61.15;29.05;;;;;;;;;;4965281;28;20033;-80
2023/10/20 06:40:23;;;;;;;58.85;29.17;;;;;;;;;;4973536;28;20023;-80
2023/10/20 06:42:49;;;;;;;62.28;30.33;;;;;;;;;;4953982;28;20023;-81
2023/10/20 06:45:15;;;;;;;59.92;28.80;;;;;;;;;;4955555;28;20229;-82
2023/10/20 06:47:42;;;;;;;58.65;28.98;;;;;;;;;;4968300;28;20041;-84
2023/10/20 06:50:10;;;;;;;52.50;26.17;;;;;;;;;;4933091;28;20027;-80
2023/10/20 06:52:40;;;;;;;50.70;25.88;;;;;;;;;;4968055;28;20098;-82
2023/10/20 06:55:07;;;;;;;60.30;27.58;;;;;;;;;;4967375;28;20059;-80
2023/10/20 06:57:33;;;;;;;54.15;25.85;;;;;;;;;;4962776;28;20030;-82
2023/10/20 07:00:00;;;;;;;57.40;25.77;;;;;;;;;;4947336;28;20034;-82
2023/10/20 07:02:27;;;;;;;57.25;27.23;;;;;;;;;;4953008;28;20019;-80
2023/10/20 07:04:53;;;;;;;54.28;25.85;;;;;;;;;;4960104;28;20265;-83
2023/10/20 07:07:20;;;;;;;56.63;26.83;;;;;;;;;;4946819;28;20434;-80
2023/10/20 07:09:46;;;;;;;54.10;26.85;;;;;;;;;;4967907;28;20078;-80
2023/10/20 07:12:14;;;;;;;53.80;27.73;;;;;;;;;;4973490;28;20085;-82
2023/10/20 07:14:42;;;;;;;55.17;26.48;;;;;;;;;;4991713;28;20045;-81
2023/10/20 07:17:08;;;;;;;62.35;28.35;;;;;;;;;;4989906;28;20034;-79
2023/10/20 07:19:34;;;;;;;58.83;27.75;;;;;;;;;;4967420;28;20039;-80
2023/10/20 07:22:02;;;;;;;59.92;28.10;;;;;;;;;;4951086;29;20039;-80
2023/10/20 07:24:29;;;;;;;60.70;28.92;;;;;;;;;;4959679;28;20051;-83
2023/10/20 07:26:55;;;;;;;60.83;28.60;;;;;;;;;;4972214;28;20051;-81
2023/10/20 07:29:21;;;;;;;62.95;29.58;;;;;;;;;;4972580;28;20062;-80
2023/10/20 07:31:48;;;;;;;60.92;29.25;;;;;;;;;;4953355;28;20050;-82
2023/10/20 07:34:15;;;;;;;64.78;29.85;;;;;;;;;;4947323;28;20341;-81
2023/10/20 07:36:41;;;;;;;62.92;28.33;;;;;;;;;;4971598;28;20015;-81
2023/10/20 07:39:08;;;;;;;59.97;28.40;;;;;;;;;;4972004;28;20058;-80
2023/10/20 07:41:35;;;;;;;64.93;27.17;;;;;;;;;;4943772;29;20261;-81
2023/10/20 07:44:04;;;;;;;56.00;26.20;;;;;;;;;;4966608;28;20060;-81
2023/10/20 07:46:31;;;;;;;53.17;25.48;;;;;;;;;;4954146;28;20564;-81
2023/10/20 07:48:57;;;;;;;51.83;25.30;;;;;;;;;;4938462;28;20041;-81
2023/10/20 07:51:24;;;;;;;57.08;24.95;;;;;;;;;;4973079;28;20151;-81
2023/10/20 07:53:50;;;;;;;53.35;24.55;;;;;;;;;;4976863;28;20118;-82
2023/10/20 07:56:16;;;;;;;55.95;26.17;;;;;;;;;;4945389;28;20237;-79
2023/10/20 07:58:42;;;;;;;52.95;24.95;;;;;;;;;;4973420;28;20030;-82
2023/10/20 08:01:09;;;;;;;53.17;24.00;;;;;;;;;;4993487;28;20034;-81
2023/10/20 08:03:35;;;;;;;53.50;24.45;;;;;;;;;;4992442;28;20043;-82
2023/10/20 08:06:05;;;;;;;50.55;24.38;;;;;;;;;;4979971;28;20030;-80
2023/10/20 08:08:32;;;;;;;43.93;21.90;;;;;;;;;;4942181;28;20124;-82
2023/10/20 08:10:59;;;;;;;45.97;23.35;;;;;;;;;;4966892;28;20039;-82
2023/10/20 08:13:25;;;;;;;49.35;21.45;;;;;;;;;;4972624;28;20046;-83
2023/10/20 08:15:51;;;;;;;47.58;22.85;;;;;;;;;;4966473;28;20031;-83
2023/10/20 08:18:17;;;;;;;41.90;20.83;;;;;;;;;;4956423;28;20114;-81
2023/10/20 08:20:43;;;;;;;42.05;21.27;;;;;;;;;;4975662;28;20039;-82
2023/10/20 08:23:10;;;;;;;46.40;21.52;;;;;;;;;;4941974;28;20440;-82
2023/10/20 08:25:39;;;;;;;44.55;21.10;;;;;;;;;;4973969;28;20472;-81
2023/10/20 08:28:05;;;;;;;41.75;19.85;;;;;;;;;;4974841;28;20030;-81
2023/10/20 08:30:32;;;;;;;41.20;20.90;;;;;;;;;;4955775;28;20026;-81
2023/10/20 08:32:59;;;;;;;35.15;17.30;;;;;;;;;;4957815;28;20185;-82
2023/10/20 08:35:26;;;;;;;38.10;17.77;;;;;;;;;;4942764;28;20030;-81
2023/10/20 08:37:52;;;;;;;33.05;18.42;;;;;;;;;;4949876;28;20058;-80
2023/10/20 08:40:18;;;;;;;31.67;16.38;;;;;;;;;;4968431;28;20034;-81
2023/10/20 08:42:44;;;;;;;31.13;17.17;;;;;;;;;;4983400;28;20054;-81
2023/10/20 08:45:15;;;;;;;32.22;17.58;;;;;;;;;;4985965;28;20038;-80
2023/10/20 08:47:43;;;;;;;29.25;16.45;;;;;;;;;;4971483;28;20047;-78
2023/10/20 08:50:09;;;;;;;22.30;12.85;;;;;;;;;;4966454;28;20046;-81
2023/10/20 08:52:36;;;;;;;21.83;12.70;;;;;;;;;;4978613;28;20142;-81
2023/10/20 08:55:04;;;;;;;27.35;13.82;;;;;;;;;;4974039;28;20129;-80
2023/10/20 08:57:30;;;;;;;20.35;11.43;;;;;;;;;;4954432;28;20499;-81
2023/10/20 08:59:56;;;;;;;19.23;10.95;;;;;;;;;;4956848;28;20038;-81
2023/10/20 09:02:22;;;;;;;16.27;10.07;;;;;;;;;;4956177;28;20034;-80
2023/10/20 09:04:52;;;;;;;18.15;10.50;;;;;;;;;;4956489;28;20023;-80
2023/10/20 09:07:18;;;;;;;15.80;9.80;;;;;;;;;;4956127;28;20049;-80
2023/10/20 09:09:44;;;;;;;14.95;9.52;;;;;;;;;;4971583;28;20034;-80
2023/10/20 09:12:13;;;;;;;16.30;10.35;;;;;;;;;;4954499;28;20127;-81
2023/10/20 09:14:39;;;;;;;13.88;9.25;;;;;;;;;;4970908;28;20059;-79
2023/10/20 09:17:06;;;;;;;15.13;9.18;;;;;;;;;;4956336;28;20030;-80
2023/10/20 09:19:32;;;;;;;13.27;8.80;;;;;;;;;;4954435;28;20039;-81
2023/10/20 09:21:58;;;;;;;14.15;8.55;;;;;;;;;;4972960;28;20054;-80
2023/10/20 09:24:31;;;;;;;14.32;8.82;;;;;;;;;;4971087;28;20077;-79
2023/10/20 09:26:59;;;;;;;11.07;7.47;;;;;;;;;;4950605;28;20038;-78
2023/10/20 09:29:29;;;;;;;14.40;8.57;;;;;;;;;;4966371;28;20034;-81
2023/10/20 09:31:57;;;;;;;12.20;7.22;;;;;;;;;;4967670;28;20119;-79
2023/10/20 09:34:23;;;;;;;11.45;7.25;;;;;;;;;;4970617;28;20039;-80
2023/10/20 09:36:50;;;;;;;11.70;7.03;;;;;;;;;;4960775;28;20052;-79
2023/10/20 09:39:24;;;;;;;12.23;7.75;;;;;;;;;;4951945;28;20031;-80
2023/10/20 09:41:51;;;;;;;11.25;7.38;;;;;;;;;;4944552;28;20038;-82
2023/10/20 09:44:23;;;;;;;12.20;7.22;;;;;;;;;;4943117;28;20034;-81
2023/10/20 09:46:55;;;;;;;10.82;7.18;;;;;;;;;;4954396;28;20035;-82
2023/10/20 09:49:23;;;;;;;12.13;7.22;;;;;;;;;;4958620;28;20055;-81
2023/10/20 09:51:49;;;;;;;10.38;7.13;;;;;;;;;;4950458;28;20027;-80
2023/10/20 09:54:17;;;;;;;10.10;6.20;;;;;;;;;;4949317;28;20129;-81
2023/10/20 09:56:44;;;;;;;13.00;6.43;;;;;;;;;;4963793;28;20027;-81
2023/10/20 09:59:12;;;;;;;9.32;6.40;;;;;;;;;;4943650;28;20043;-82
2023/10/20 10:01:38;;;;;;;9.30;6.28;;;;;;;;;;4960157;28;20035;-80
2023/10/20 10:04:05;;;;;;;8.52;5.90;;;;;;;;;;4947306;28;20039;-80
2023/10/20 10:06:37;;;;;;;7.78;5.55;;;;;;;;;;4966040;28;20039;-80
2023/10/20 10:09:08;;;;;;;6.35;4.60;;;;;;;;;;4959283;28;20508;-80
2023/10/20 10:11:44;;;;;;;7.28;4.43;;;;;;;;;;4946741;28;20500;-82
2023/10/20 10:14:22;;;;;;;5.32;3.97;;;;;;;;;;4960293;28;20038;-80
2023/10/20 10:16:53;;;;;;;7.15;4.65;;;;;;;;;;4940722;28;20027;-80
2023/10/20 10:19:20;;;;;;;5.97;4.30;;;;;;;;;;4960187;28;20082;-81
2023/10/20 10:21:52;;;;;;;6.13;3.90;;;;;;;;;;4970817;28;20042;-79
2023/10/20 10:24:19;;;;;;;5.13;4.00;;;;;;;;;;4984248;28;20046;-80
2023/10/20 10:26:51;;;;;;;6.30;3.80;;;;;;;;;;4988148;28;20026;-80
2023/10/20 10:29:18;;;;;;;6.43;4.28;;;;;;;;;;4991389;28;20019;-80
2023/10/20 10:31:44;;;;;;;5.07;3.47;;;;;;;;;;4971162;28;20027;-80
2023/10/20 10:34:11;;;;;;;6.68;3.65;;;;;;;;;;4961613;28;20034;-81
2023/10/20 10:36:47;;;;;;;5.30;3.38;;;;;;;;;;4973932;28;20096;-79
2023/10/20 10:39:29;;;;;;;4.75;3.10;;;;;;;;;;4957108;28;20041;-79
2023/10/20 10:42:01;;;;;;;4.32;3.40;;;;;;;;;;4979148;28;20022;-80
2023/10/20 10:44:37;;;;;;;4.70;3.63;;;;;;;;;;4980963;28;20042;-80
2023/10/20 10:47:07;;;;;;;4.35;3.17;;;;;;;;;;4954585;28;20031;-79
2023/10/20 10:49:34;;;;;;;4.07;3.50;;;;;;;;;;4973958;28;20035;-79
2023/10/20 10:52:09;;;;;;;4.65;3.45;;;;;;;;;;4963708;28;20047;-79
2023/10/20 10:54:35;;;;;;;4.18;2.90;;;;;;;;;;4980486;28;20090;-79
2023/10/20 10:57:03;;;;;;;5.68;2.85;;;;;;;;;;4960523;28;20097;-79
2023/10/20 10:59:29;;;;;;;3.53;2.83;;;;;;;;;;4969704;28;20039;-80
2023/10/20 11:01:56;;;;;;;4.13;2.97;;;;;;;;;;4954403;28;20113;-79
2023/10/20 11:04:22;;;;;;;4.05;3.00;;;;;;;;;;4972570;28;20046;-80
2023/10/20 11:06:49;;;;;;;3.58;2.78;;;;;;;;;;4955195;28;20035;-79
2023/10/20 11:09:19;;;;;;;3.05;2.50;;;;;;;;;;4954646;28;20038;-80
2023/10/20 11:11:48;;;;;;;6.20;2.85;;;;;;;;;;4936266;28;20090;-80
2023/10/20 11:14:18;;;;;;;3.60;2.75;;;;;;;;;;4956631;28;20054;-80
2023/10/20 11:16:44;;;;;;;3.63;2.40;;;;;;;;;;4975207;28;20045;-79
2023/10/20 11:19:14;;;;;;;3.17;2.33;;;;;;;;;;4960977;28;20050;-81
2023/10/20 11:21:54;;;;;;;3.58;2.30;;;;;;;;;;4982712;28;20039;-79
2023/10/20 11:24:38;;;;;;;3.92;2.30;;;;;;;;;;4953474;28;20051;-80
2023/10/20 11:27:06;;;;;;;2.83;2.20;;;;;;;;;;4962455;29;20031;-80
2023/10/20 11:29:33;;;;;;;3.67;2.17;;;;;;;;;;4941880;29;20038;-80
2023/10/20 11:32:09;;;;;;;2.50;2.10;;;;;;;;;;4938426;29;20031;-80
2023/10/20 11:34:36;;;;;;;2.70;2.20;;;;;;;;;;4936198;29;20050;-79
2023/10/20 11:37:03;;;;;;;4.78;3.08;;;;;;;;;;4953988;28;20031;-79
2023/10/20 11:39:30;;;;;;;2.92;2.40;;;;;;;;;;4920039;29;20078;-80
2023/10/20 11:41:56;;;;;;;2.70;2.40;;;;;;;;;;4951437;29;20038;-79
2023/10/20 11:44:24;;;;;;;3.38;2.47;;;;;;;;;;4937318;29;20067;-78
2023/10/20 11:46:54;;;;;;;3.53;2.55;;;;;;;;;;4950014;29;20036;-78
2023/10/20 11:49:27;;;;;;;6.25;4.40;;;;;;;;;;4940897;29;20035;-79
2023/10/20 11:51:53;;;;;;;4.60;3.80;;;;;;;;;;4952356;28;20038;-79
2023/10/20 11:54:19;;;;;;;4.40;3.58;;;;;;;;;;4955592;29;20058;-80
2023/10/20 11:56:45;;;;;;;4.05;3.55;;;;;;;;;;4957734;28;20110;-79
2023/10/20 11:59:12;;;;;;;4.18;3.28;;;;;;;;;;4935624;29;20063;-78
2023/10/20 12:01:39;;;;;;;5.57;3.78;;;;;;;;;;4951050;29;20050;-79
2023/10/20 12:04:06;;;;;;;5.43;3.65;;;;;;;;;;4939130;29;20035;-80
2023/10/20 12:06:39;;;;;;;4.10;3.58;;;;;;;;;;4939519;29;20171;-79
2023/10/20 12:09:08;;;;;;;5.55;3.78;;;;;;;;;;4957189;28;20035;-79
2023/10/20 12:11:36;;;;;;;5.32;3.58;;;;;;;;;;4927131;29;20123;-79
2023/10/20 12:14:03;;;;;;;3.42;3.13;;;;;;;;;;4938292;29;20125;-78
2023/10/20 12:16:29;;;;;;;5.93;4.03;;;;;;;;;;4947324;29;20111;-79
2023/10/20 12:19:01;;;;;;;7.22;3.88;;;;;;;;;;4954435;29;20075;-79
2023/10/20 12:21:28;;;;;;;4.75;3.80;;;;;;;;;;4940649;29;20421;-79
2023/10/20 12:23:54;;;;;;;4.55;3.20;;;;;;;;;;4962158;28;20054;-80
2023/10/20 12:26:20;;;;;;;6.97;4.47;;;;;;;;;;4964675;28;20031;-79
2023/10/20 12:28:46;;;;;;;4.60;3.35;;;;;;;;;;4964762;28;20042;-79
2023/10/20 12:31:13;;;;;;;4.18;3.22;;;;;;;;;;4958123;28;20035;-81
2023/10/20 12:33:39;;;;;;;8.00;5.40;;;;;;;;;;4957694;28;20046;-79
2023/10/20 12:36:05;;;;;;;3.65;3.17;;;;;;;;;;4964878;28;20046;-81
2023/10/20 12:38:31;;;;;;;4.20;3.80;;;;;;;;;;4978539;28;20098;-79
2023/10/20 12:40:57;;;;;;;4.18;3.38;;;;;;;;;;4975897;28;20031;-79
2023/10/20 12:43:25;;;;;;;3.72;2.88;;;;;;;;;;4973926;28;20154;-79
2023/10/20 12:45:52;;;;;;;3.97;2.78;;;;;;;;;;4957257;28;20126;-79
2023/10/20 12:48:18;;;;;;;3.83;3.20;;;;;;;;;;4957540;28;20043;-78
2023/10/20 12:50:44;;;;;;;4.28;3.30;;;;;;;;;;4957802;28;20069;-80
2023/10/20 12:53:10;;;;;;;5.00;4.05;;;;;;;;;;4942219;28;20022;-80
2023/10/20 12:55:36;;;;;;;5.15;2.95;;;;;;;;;;4974577;28;20022;-79
2023/10/20 12:58:03;;;;;;;6.63;4.10;;;;;;;;;;4956761;28;20042;-79
2023/10/20 13:00:29;;;;;;;5.07;3.58;;;;;;;;;;4962115;28;20043;-80
2023/10/20 13:02:55;;;;;;;3.65;3.33;;;;;;;;;;4965303;28;20047;-79
2023/10/20 13:05:22;;;;;;;4.05;2.70;;;;;;;;;;4974269;28;20030;-82
2023/10/20 13:07:50;;;;;;;4.45;3.47;;;;;;;;;;4973952;28;20400;-79
2023/10/20 13:10:16;;;;;;;3.90;3.47;;;;;;;;;;4947029;28;20023;-79
2023/10/20 13:12:43;;;;;;;7.30;3.83;;;;;;;;;;4979623;28;20050;-81
2023/10/20 13:15:10;;;;;;;3.75;2.97;;;;;;;;;;4977120;28;20369;-80
2023/10/20 13:17:36;;;;;;;5.07;3.55;;;;;;;;;;4984671;28;20023;-79
2023/10/20 13:20:03;;;;;;;5.32;3.20;;;;;;;;;;4990415;28;20019;-77
2023/10/20 13:22:30;;;;;;;4.43;3.60;;;;;;;;;;4965826;28;20035;-78
2023/10/20 13:24:56;;;;;;;5.05;4.38;;;;;;;;;;4945901;28;20061;-79
2023/10/20 13:27:22;;;;;;;4.50;3.85;;;;;;;;;;4976384;28;20031;-79
2023/10/20 13:29:48;;;;;;;4.38;3.90;;;;;;;;;;4956827;28;20480;-82
2023/10/20 13:32:15;;;;;;;5.40;4.55;;;;;;;;;;4954520;28;20061;-79
2023/10/20 13:34:41;;;;;;;6.00;4.35;;;;;;;;;;4966819;28;20234;-79
2023/10/20 13:37:07;;;;;;;5.55;4.85;;;;;;;;;;4951475;28;20440;-78
2023/10/20 13:39:33;;;;;;;8.15;5.97;;;;;;;;;;4938570;28;20098;-79
2023/10/20 13:42:02;;;;;;;6.20;4.38;;;;;;;;;;4975061;28;20077;-78
2023/10/20 13:44:28;;;;;;;4.78;3.80;;;;;;;;;;4963715;28;20060;-79
2023/10/20 13:46:54;;;;;;;4.80;3.58;;;;;;;;;;4959714;28;20038;-80
2023/10/20 13:49:21;;;;;;;4.07;3.50;;;;;;;;;;4953268;28;20138;-79
2023/10/20 13:51:47;;;;;;;4.90;4.40;;;;;;;;;;4954762;28;20050;-78
2023/10/20 13:54:15;;;;;;;6.05;4.45;;;;;;;;;;4953861;28;20038;-80
2023/10/20 13:56:41;;;;;;;7.85;4.60;;;;;;;;;;4976792;28;20081;-78
2023/10/20 13:59:08;;;;;;;7.63;4.43;;;;;;;;;;4965879;28;20061;-78
2023/10/20 14:01:34;;;;;;;4.90;4.13;;;;;;;;;;4973424;28;20505;-78
2023/10/20 14:04:01;;;;;;;4.07;3.53;;;;;;;;;;4959688;28;20418;-79
2023/10/20 14:06:27;;;;;;;4.35;3.20;;;;;;;;;;4956085;28;20026;-78
2023/10/20 14:08:53;;;;;;;5.07;4.05;;;;;;;;;;4980091;28;20035;-78
2023/10/20 14:11:19;;;;;;;7.63;3.85;;;;;;;;;;4954972;28;20150;-78
2023/10/20 14:13:46;;;;;;;3.92;2.90;;;;;;;;;;4982473;28;20030;-77
2023/10/20 14:16:12;;;;;;;6.38;5.50;;;;;;;;;;4943194;28;20035;-77
2023/10/20 14:18:38;;;;;;;7.57;6.43;;;;;;;;;;4956280;28;20026;-79
2023/10/20 14:21:04;;;;;;;4.25;2.58;;;;;;;;;;4949660;28;20102;-78
2023/10/20 14:23:31;;;;;;;5.35;3.58;;;;;;;;;;4970294;28;20047;-78
2023/10/20 14:26:00;;;;;;;5.80;2.80;;;;;;;;;;4947525;28;20106;-78
2023/10/20 14:28:33;;;;;;;3.65;2.17;;;;;;;;;;4981475;28;20044;-78
2023/10/20 14:30:59;;;;;;;4.20;3.15;;;;;;;;;;4963464;28;20034;-79
2023/10/20 14:33:25;;;;;;;2.50;1.75;;;;;;;;;;4968388;28;20050;-78
2023/10/20 14:35:56;;;;;;;2.60;1.90;;;;;;;;;;4974474;28;20030;-77
2023/10/20 14:38:22;;;;;;;3.75;2.65;;;;;;;;;;4954978;28;20042;-78
2023/10/20 14:40:58;;;;;;;4.40;2.88;;;;;;;;;;4941688;28;20129;-78
2023/10/20 14:43:24;;;;;;;4.60;3.40;;;;;;;;;;4948005;28;20027;-78
2023/10/20 14:45:57;;;;;;;3.10;2.50;;;;;;;;;;4954579;28;21438;-77
2023/10/20 14:48:24;;;;;;;4.25;2.58;;;;;;;;;;4964235;28;20030;-78
2023/10/20 14:50:50;;;;;;;7.07;4.82;;;;;;;;;;4959870;28;20054;-77
2023/10/20 14:53:17;;;;;;;2.83;2.33;;;;;;;;;;4977128;28;20030;-78
2023/10/20 14:55:43;;;;;;;3.53;2.33;;;;;;;;;;4954879;28;20082;-77
2023/10/20 14:58:09;;;;;;;3.20;2.20;;;;;;;;;;4950814;28;20058;-78
2023/10/20 15:00:36;;;;;;;2.40;2.10;;;;;;;;;;4972978;28;20069;-78
2023/10/20 15:03:02;;;;;;;3.40;3.08;;;;;;;;;;4967288;28;20035;-77
2023/10/20 15:05:28;;;;;;;3.58;3.05;;;;;;;;;;4950437;28;20049;-78
2023/10/20 15:07:55;;;;;;;4.35;2.67;;;;;;;;;;4969489;28;20038;-78
2023/10/20 15:10:21;;;;;;;5.65;2.20;;;;;;;;;;4966557;28;20027;-78
2023/10/20 15:12:47;;;;;;;4.38;2.30;;;;;;;;;;4965257;28;20039;-78